Time;durP1;ratioP1;P1;durP2;ratioP2;P2;SDS_P1;SDS_P2;PMS_P1;PMS_P2;Temp;Humidity;BMP_temperature;BMP_pressure;BME280_temperature;BME280_humidity;BME280_pressure;Samples;Min_cycle;Max_cycle;Signal;HPM_P1;HPM_P2
2023/08/30 00:02:08;;;;;;;11.70;10.00;;;;;;;24.92;100.00;98171.67;109653;1250;59288;-69
2023/08/30 00:04:35;;;;;;;18.00;10.70;;;;;;;24.83;100.00;98161.41;109634;1250;72958;-69
2023/08/30 00:07:02;;;;;;;16.00;10.10;;;;;;;24.72;100.00;98165.88;109679;1250;60192;-69
2023/08/30 00:09:28;;;;;;;17.80;10.20;;;;;;;24.60;100.00;98169.30;109661;1250;59046;-69
2023/08/30 00:11:55;;;;;;;13.30;10.60;;;;;;;24.50;100.00;98168.46;109661;1250;73162;-69
2023/08/30 00:14:21;;;;;;;13.00;9.60;;;;;;;24.40;100.00;98172.05;109681;1250;59316;-69
2023/08/30 00:16:48;;;;;;;13.10;9.80;;;;;;;24.32;100.00;98177.11;109657;1250;59211;-68
2023/08/30 00:19:15;;;;;;;14.00;9.60;;;;;;;24.25;100.00;98174.84;109649;1250;59536;-69
2023/08/30 00:21:42;;;;;;;10.90;9.80;;;;;;;24.17;100.00;98174.35;109709;1250;60224;-69
2023/08/30 00:24:09;;;;;;;12.90;10.70;;;;;;;24.08;100.00;98175.20;109720;1250;73525;-69
2023/08/30 00:26:36;;;;;;;13.50;10.60;;;;;;;23.96;100.00;98175.36;109720;1250;68134;-70
2023/08/30 00:29:04;;;;;;;14.20;11.00;;;;;;;23.84;100.00;98174.52;109716;1250;72493;-69
2023/08/30 00:31:30;;;;;;;12.80;11.00;;;;;;;23.75;100.00;98179.59;109544;1254;58999;-68
2023/08/30 00:33:57;;;;;;;13.40;10.70;;;;;;;23.69;100.00;98179.60;109654;1250;59007;-69
2023/08/30 00:36:23;;;;;;;16.20;10.90;;;;;;;23.64;100.00;98181.38;109695;1250;59483;-68
2023/08/30 00:38:50;;;;;;;13.80;10.70;;;;;;;23.61;100.00;98187.77;109703;1250;58976;-69
2023/08/30 00:41:16;;;;;;;14.10;10.00;;;;;;;23.59;100.00;98193.98;109643;1250;71481;-69
2023/08/30 00:43:43;;;;;;;10.60;9.10;;;;;;;23.54;100.00;98191.46;109682;1250;60362;-69
2023/08/30 00:46:09;;;;;;;13.20;9.90;;;;;;;23.47;100.00;98190.88;109701;1250;60208;-69
2023/08/30 00:48:36;;;;;;;15.20;9.90;;;;;;;23.36;100.00;98193.66;109427;1253;74469;-69
2023/08/30 00:51:03;;;;;;;17.20;10.40;;;;;;;23.26;100.00;98197.46;109502;1250;67146;-69
2023/08/30 00:53:29;;;;;;;11.50;9.90;;;;;;;23.16;100.00;98190.63;109692;1250;71494;-69
2023/08/30 00:55:56;;;;;;;12.30;10.10;;;;;;;23.08;100.00;98185.81;109583;1250;59106;-69
2023/08/30 00:58:22;;;;;;;13.90;10.50;;;;;;;23.01;100.00;98187.22;109700;1254;58929;-69
2023/08/30 01:00:50;;;;;;;16.20;11.20;;;;;;;22.93;100.00;98185.05;109659;1250;59029;-69
2023/08/30 01:03:16;;;;;;;13.40;10.30;;;;;;;22.84;100.00;98182.28;109533;1250;66405;-69
2023/08/30 01:05:43;;;;;;;15.40;10.40;;;;;;;22.73;100.00;98184.02;109672;1250;72530;-69
2023/08/30 01:08:11;;;;;;;13.10;10.20;;;;;;;22.68;100.00;98186.06;109520;1250;61085;-69
2023/08/30 01:10:44;;;;;;;12.70;10.90;;;;;;;22.67;100.00;98192.61;109715;1250;59088;-69
2023/08/30 01:13:13;;;;;;;15.20;10.60;;;;;;;22.68;100.00;98193.20;109502;1251;74814;-69
2023/08/30 01:15:39;;;;;;;14.90;10.60;;;;;;;22.68;100.00;98191.80;109407;1250;67732;-69
2023/08/30 01:18:06;;;;;;;18.30;11.00;;;;;;;22.66;100.00;98190.14;109377;1250;72683;-69
2023/08/30 01:20:35;;;;;;;13.80;10.70;;;;;;;22.63;100.00;98185.31;109649;1250;58991;-69
2023/08/30 01:23:42;;;;;;;16.90;11.20;;;;;;;22.60;100.00;98187.03;109546;1251;59294;-69
2023/08/30 01:26:13;;;;;;;16.70;11.20;;;;;;;22.61;100.00;98182.10;109427;1250;75812;-69
2023/08/30 01:28:40;;;;;;;14.50;10.50;;;;;;;22.60;100.00;98180.97;109466;1250;67993;-69
2023/08/30 01:31:07;;;;;;;11.80;10.30;;;;;;;22.60;100.00;98182.31;109402;1250;72532;-69
2023/08/30 01:33:34;;;;;;;12.20;11.00;;;;;;;22.59;100.00;98181.73;109529;1251;60509;-69
2023/08/30 01:36:00;;;;;;;13.60;9.90;;;;;;;22.56;100.00;98179.26;109650;1250;58847;-69
2023/08/30 01:38:28;;;;;;;14.30;10.80;;;;;;;22.51;100.00;98177.82;109599;1250;73619;-69
2023/08/30 01:40:55;;;;;;;11.80;10.60;;;;;;;22.44;100.00;98171.95;109539;1250;66386;-69
2023/08/30 01:43:23;;;;;;;13.70;9.90;;;;;;;22.37;100.00;98166.94;109583;1250;72370;-69
2023/08/30 01:45:49;;;;;;;15.00;10.80;;;;;;;22.28;100.00;98160.85;109643;1251;59125;-69
2023/08/30 01:48:17;;;;;;;12.30;10.50;;;;;;;22.19;100.00;98160.50;109586;1251;58990;-69
2023/08/30 01:50:43;;;;;;;15.20;11.90;;;;;;;22.11;100.00;98158.63;109461;1250;73495;-69
2023/08/30 01:53:11;;;;;;;13.90;11.70;;;;;;;22.06;100.00;98157.56;109541;1250;67764;-69
2023/08/30 01:55:38;;;;;;;14.30;10.40;;;;;;;22.07;100.00;98154.54;109645;1250;72414;-69
2023/08/30 01:58:06;;;;;;;12.10;10.40;;;;;;;22.10;100.00;98157.61;109452;1250;60292;-69
2023/08/30 02:00:35;;;;;;;13.10;10.40;;;;;;;22.10;100.00;98161.08;109690;1250;60095;-69
2023/08/30 02:03:11;;;;;;;13.90;12.20;;;;;;;22.03;100.00;98155.14;109615;1250;75569;-69
2023/08/30 02:05:47;;;;;;;16.10;11.60;;;;;;;21.92;100.00;98156.52;109606;1250;67703;-70
2023/08/30 02:08:16;;;;;;;13.70;11.00;;;;;;;21.85;100.00;98151.75;109520;1250;72472;-70
2023/08/30 02:10:52;;;;;;;18.80;12.40;;;;;;;21.80;100.00;98145.70;109613;1250;60626;-69
2023/08/30 02:13:21;;;;;;;15.70;11.40;;;;;;;21.76;100.00;98151.98;109549;1250;60022;-69
2023/08/30 02:15:48;;;;;;;16.30;11.60;;;;;;;21.73;100.00;98152.20;109576;1250;74418;-69
2023/08/30 02:18:15;;;;;;;15.50;11.70;;;;;;;21.69;100.00;98152.38;109601;1250;66348;-69
2023/08/30 02:20:42;;;;;;;13.90;11.70;;;;;;;21.67;100.00;98147.45;109678;1250;72332;-70
2023/08/30 02:23:09;;;;;;;14.00;11.70;;;;;;;21.66;100.00;98144.70;109589;1250;59174;-69
2023/08/30 02:25:41;;;;;;;19.00;11.30;;;;;;;21.66;100.00;98139.92;109689;1250;60016;-69
2023/08/30 02:28:08;;;;;;;14.30;10.40;;;;;;;21.69;100.00;98139.44;109662;1250;74382;-68
2023/08/30 02:30:35;;;;;;;14.80;10.60;;;;;;;21.74;100.00;98137.20;109633;1250;67870;-69
2023/08/30 02:33:02;;;;;;;15.20;10.90;;;;;;;21.80;100.00;98138.71;109602;1251;71461;-68
2023/08/30 02:35:28;;;;;;;17.30;11.20;;;;;;;21.81;100.00;98139.14;109625;1251;60349;-68
2023/08/30 02:37:55;;;;;;;17.00;12.10;;;;;;;21.79;100.00;98139.73;109709;1250;60152;-68
2023/08/30 02:40:22;;;;;;;13.00;11.50;;;;;;;21.75;100.00;98141.77;109693;1250;74927;-68
2023/08/30 02:42:48;;;;;;;11.80;10.60;;;;;;;21.68;100.00;98142.96;109570;1251;67861;-69
2023/08/30 02:45:15;;;;;;;15.30;10.90;;;;;;;21.63;100.00;98146.54;109659;1251;72468;-69
2023/08/30 02:47:41;;;;;;;17.20;10.90;;;;;;;21.57;100.00;98145.14;109629;1254;60515;-69
2023/08/30 02:50:08;;;;;;;12.60;10.70;;;;;;;21.50;100.00;98143.08;109657;1250;58846;-69
2023/08/30 02:52:35;;;;;;;13.90;11.10;;;;;;;21.48;100.00;98139.95;109563;1251;74598;-69
2023/08/30 02:55:01;;;;;;;16.50;10.90;;;;;;;21.46;100.00;98142.00;109668;1251;68161;-69
2023/08/30 02:57:28;;;;;;;15.50;10.70;;;;;;;21.45;100.00;98145.92;109539;1255;73142;-69
2023/08/30 02:59:55;;;;;;;18.10;10.10;;;;;;;21.43;100.00;98147.10;109582;1251;60383;-69
2023/08/30 03:02:22;;;;;;;16.30;10.30;;;;;;;21.40;100.00;98148.94;109611;1251;58977;-69
2023/08/30 03:04:48;;;;;;;12.00;9.90;;;;;;;21.38;100.00;98154.50;109615;1250;74304;-69
2023/08/30 03:07:15;;;;;;;12.60;10.70;;;;;;;21.40;100.00;98159.52;109598;1251;58975;-69
2023/08/30 03:09:42;;;;;;;14.70;11.00;;;;;;;21.44;100.00;98160.46;109576;1250;72650;-69
2023/08/30 03:12:08;;;;;;;18.50;11.30;;;;;;;21.50;100.00;98155.52;109513;1251;59310;-68
2023/08/30 03:14:35;;;;;;;13.60;10.40;;;;;;;21.58;100.00;98157.91;109476;1251;59559;-68
2023/08/30 03:17:02;;;;;;;14.40;10.90;;;;;;;21.64;100.00;98161.48;109635;1250;73820;-69
2023/08/30 03:19:29;;;;;;;13.30;9.50;;;;;;;21.68;100.00;98164.50;109634;1251;67634;-69
2023/08/30 03:21:55;;;;;;;12.50;10.10;;;;;;;21.68;100.00;98164.45;109557;1251;72536;-69
2023/08/30 03:24:22;;;;;;;23.10;18.80;;;;;;;21.66;100.00;98165.05;109610;1250;58896;-69
2023/08/30 03:26:48;;;;;;;21.90;15.80;;;;;;;21.67;100.00;98163.70;109634;1251;60009;-69
2023/08/30 03:29:17;;;;;;;18.10;12.40;;;;;;;21.70;100.00;98162.44;109672;1250;74724;-69
2023/08/30 03:31:44;;;;;;;13.60;11.10;;;;;;;21.72;100.00;98162.65;109614;1251;67649;-69
2023/08/30 03:34:11;;;;;;;15.80;11.70;;;;;;;21.74;100.00;98161.19;109581;1251;71278;-69
2023/08/30 03:36:38;;;;;;;14.40;11.20;;;;;;;21.69;100.00;98163.52;109587;1251;60366;-69
2023/08/30 03:39:04;;;;;;;16.00;11.10;;;;;;;21.56;100.00;98163.36;109563;1251;60002;-69
2023/08/30 03:41:31;;;;;;;12.50;11.00;;;;;;;21.39;100.00;98162.09;109693;1251;73209;-69
2023/08/30 03:43:57;;;;;;;13.40;11.70;;;;;;;21.26;100.00;98162.09;109556;1250;66457;-69
2023/08/30 03:46:24;;;;;;;13.00;9.20;;;;;;;21.17;100.00;98159.59;109484;1251;71195;-69
2023/08/30 03:48:50;;;;;;;15.40;10.50;;;;;;;21.13;100.00;98157.17;109620;1250;60569;-69
2023/08/30 03:51:17;;;;;;;16.70;10.90;;;;;;;21.09;100.00;98152.62;109728;1250;59043;-69
2023/08/30 03:53:43;;;;;;;13.00;11.20;;;;;;;21.06;100.00;98150.50;109501;1253;74635;-69
2023/08/30 03:56:10;;;;;;;13.40;11.90;;;;;;;21.05;100.00;98147.45;109728;1250;59542;-68
2023/08/30 03:58:38;;;;;;;12.70;10.90;;;;;;;21.04;100.00;98144.70;109637;1251;72471;-69
2023/08/30 04:01:06;;;;;;;11.50;10.40;;;;;;;21.03;100.00;98143.17;109632;1251;61856;-69
2023/08/30 04:03:33;;;;;;;16.10;10.70;;;;;;;21.02;100.00;98140.95;109724;1251;58883;-69
2023/08/30 04:06:00;;;;;;;13.70;10.60;;;;;;;21.02;100.00;98142.41;109509;1250;74403;-68
2023/08/30 04:08:27;;;;;;;12.80;10.30;;;;;;;21.00;100.00;98144.15;109641;1251;66594;-69
2023/08/30 04:10:54;;;;;;;17.50;11.60;;;;;;;20.96;100.00;98144.52;109592;1250;73149;-69
2023/08/30 04:13:21;;;;;;;13.80;10.90;;;;;;;20.91;100.00;98145.21;109648;1251;62012;-69
2023/08/30 04:15:48;;;;;;;14.00;12.50;;;;;;;20.88;100.00;98142.08;109627;1251;60345;-68
2023/08/30 04:18:14;;;;;;;14.90;11.30;;;;;;;20.85;100.00;98141.59;109670;1251;73204;-69
2023/08/30 04:20:45;;;;;;;12.80;11.30;;;;;;;20.79;100.00;98136.29;109617;1251;67808;-69
2023/08/30 04:23:12;;;;;;;13.50;10.60;;;;;;;20.74;100.00;98134.21;109642;1250;72480;-68
2023/08/30 04:25:38;;;;;;;12.90;11.60;;;;;;;20.69;100.00;98133.83;109557;1251;60745;-69
2023/08/30 04:28:05;;;;;;;13.80;11.60;;;;;;;20.65;100.00;98135.12;109577;1251;60316;-68
2023/08/30 04:30:33;;;;;;;12.40;10.40;;;;;;;20.62;100.00;98131.72;109628;1254;72441;-68
2023/08/30 04:33:02;;;;;;;17.10;10.90;;;;;;;20.66;100.00;98129.02;109643;1250;67784;-69
2023/08/30 04:35:30;;;;;;;12.20;10.50;;;;;;;20.75;100.00;98124.49;109615;1251;72548;-68
2023/08/30 04:38:00;;;;;;;13.50;9.70;;;;;;;20.88;100.00;98122.51;109512;1251;61795;-68
2023/08/30 04:40:27;;;;;;;12.40;10.40;;;;;;;21.10;100.00;98118.82;109590;1251;58924;-70
2023/08/30 04:42:53;;;;;;;16.70;10.50;;;;;;;21.36;100.00;98110.05;109548;1250;73395;-68
2023/08/30 04:45:20;;;;;;;12.90;9.70;;;;;;;21.63;100.00;98107.58;109582;1250;66372;-68
2023/08/30 04:47:47;;;;;;;11.50;9.80;;;;;;;21.83;100.00;98098.38;109621;1251;71442;-68
2023/08/30 04:50:14;;;;;;;11.70;10.60;;;;;;;22.00;100.00;98100.88;109672;1250;61671;-69
2023/08/30 04:52:42;;;;;;;11.80;10.50;;;;;;;22.12;100.00;98098.45;109544;1251;60075;-68
2023/08/30 04:55:09;;;;;;;16.20;10.00;;;;;;;22.24;100.00;98096.89;109511;1250;74492;-69
2023/08/30 04:57:36;;;;;;;11.10;10.10;;;;;;;22.33;100.00;98096.79;109581;1251;67870;-69
2023/08/30 05:00:05;;;;;;;12.20;9.90;;;;;;;22.41;100.00;98097.71;109503;1251;72602;-69
2023/08/30 05:02:32;;;;;;;12.20;10.90;;;;;;;22.50;100.00;98092.45;109512;1251;62018;-69
2023/08/30 05:05:06;;;;;;;11.60;10.40;;;;;;;22.61;100.00;98096.95;109557;1251;59093;-69
2023/08/30 05:07:32;;;;;;;12.20;11.10;;;;;;;22.72;100.00;98096.75;109507;1250;74661;-69
2023/08/30 05:09:59;;;;;;;11.70;10.50;;;;;;;22.83;100.00;98091.58;109646;1250;67773;-68
2023/08/30 05:12:26;;;;;;;15.20;11.40;;;;;;;22.93;100.00;98096.86;109616;1251;72727;-68
2023/08/30 05:14:53;;;;;;;16.90;11.90;;;;;;;22.98;100.00;98097.96;109519;1251;60171;-68
2023/08/30 05:17:19;;;;;;;14.70;12.30;;;;;;;23.02;100.00;98097.22;109410;1251;218452;-69
2023/08/30 05:19:46;;;;;;;13.20;12.00;;;;;;;23.11;100.00;98101.17;109699;1250;74485;-69
2023/08/30 05:22:13;;;;;;;19.40;12.40;;;;;;;23.21;100.00;98097.89;109578;1251;67246;-71
2023/08/30 05:24:39;;;;;;;16.10;12.80;;;;;;;23.31;100.00;98092.73;109509;1251;72655;-62
2023/08/30 05:27:07;;;;;;;17.40;12.60;;;;;;;23.44;100.00;98091.46;109643;1250;60499;-64
2023/08/30 05:29:38;;;;;;;17.70;13.10;;;;;;;23.56;100.00;98092.70;109531;1250;59318;-65
2023/08/30 05:32:05;;;;;;;15.20;12.80;;;;;;;23.61;100.00;98090.15;109522;1251;74499;-69
2023/08/30 05:34:41;;;;;;;14.10;12.70;;;;;;;23.60;100.00;98095.10;109569;1250;66662;-68
2023/08/30 05:37:17;;;;;;;15.60;12.30;;;;;;;23.53;100.00;98092.23;109432;1251;71397;-67
2023/08/30 05:40:03;;;;;;;13.80;12.10;;;;;;;23.45;100.00;98099.98;109622;1251;60920;-73
2023/08/30 05:42:30;;;;;;;14.30;12.60;;;;;;;23.40;100.00;98093.14;109535;1251;60221;-74
2023/08/30 05:44:56;;;;;;;18.00;12.40;;;;;;;23.36;100.00;98099.06;109621;1250;74630;-73
2023/08/30 05:47:23;;;;;;;14.30;12.60;;;;;;;23.32;100.00;98101.80;109513;1251;67859;-68
2023/08/30 05:49:50;;;;;;;16.00;12.90;;;;;;;23.27;100.00;98103.09;109586;1251;71134;-67
2023/08/30 05:52:18;;;;;;;16.70;12.60;;;;;;;23.22;100.00;98100.87;109653;1251;60456;-71
2023/08/30 05:54:45;;;;;;;16.30;14.00;;;;;;;23.20;100.00;98104.84;109518;1251;59013;-72
2023/08/30 05:57:11;;;;;;;18.80;13.00;;;;;;;23.19;100.00;98112.88;109656;1250;74362;-71
2023/08/30 05:59:38;;;;;;;14.70;11.90;;;;;;;23.19;100.00;98113.58;109513;1251;66650;-74
2023/08/30 06:02:04;;;;;;;15.20;11.70;;;;;;;23.24;100.00;98119.51;109619;1250;71113;-77
2023/08/30 06:04:31;;;;;;;13.40;11.80;;;;;;;23.29;100.00;98114.42;109539;1250;59182;-70
2023/08/30 06:06:58;;;;;;;12.70;11.30;;;;;;;23.36;100.00;98122.94;109455;1251;60211;-78
2023/08/30 06:09:25;;;;;;;14.30;11.60;;;;;;;23.44;100.00;98123.16;109654;1250;74306;-67
2023/08/30 06:11:51;;;;;;;13.20;10.80;;;;;;;23.49;100.00;98118.45;109633;1251;67829;-75
2023/08/30 06:14:18;;;;;;;14.70;11.20;;;;;;;23.53;100.00;98115.09;109550;1251;59427;-70
2023/08/30 06:16:44;;;;;;;15.10;11.00;;;;;;;23.58;100.00;98119.62;109581;1250;60469;-75
2023/08/30 06:19:11;;;;;;;14.40;11.60;;;;;;;23.61;100.00;98117.67;109652;1250;60128;-64
2023/08/30 06:21:37;;;;;;;13.20;12.00;;;;;;;23.64;100.00;98118.18;109657;1250;74695;-70
2023/08/30 06:24:04;;;;;;;13.00;11.40;;;;;;;23.67;100.00;98122.88;109591;1250;67552;-69
2023/08/30 06:26:31;;;;;;;13.30;11.80;;;;;;;23.69;100.00;98122.27;109556;1250;71092;-69
2023/08/30 06:28:58;;;;;;;20.40;11.50;;;;;;;23.71;100.00;98121.05;109457;1251;60528;-69
2023/08/30 06:31:32;;;;;;;14.70;12.60;;;;;;;23.74;100.00;98131.27;109597;1250;59204;-66
2023/08/30 06:33:58;;;;;;;13.30;12.00;;;;;;;23.78;100.00;98134.66;109598;1250;73150;-70
2023/08/30 06:36:25;;;;;;;15.20;13.00;;;;;;;23.82;100.00;98134.77;109556;1249;59545;-66
2023/08/30 06:38:52;;;;;;;16.10;14.40;;;;;;;23.89;100.00;98133.02;109565;1250;71425;-60
2023/08/30 06:41:18;;;;;;;16.60;14.80;;;;;;;23.94;100.00;98136.48;109614;1250;60281;-65
2023/08/30 06:43:45;;;;;;;18.60;15.70;;;;;;;23.96;100.00;98143.48;109643;1250;59018;-64
2023/08/30 06:46:11;;;;;;;15.00;13.20;;;;;;;23.97;100.00;98137.11;109623;1250;58976;-69
2023/08/30 06:48:38;;;;;;;16.30;13.60;;;;;;;23.98;100.00;98137.69;109575;1250;67188;-69
2023/08/30 06:51:05;;;;;;;19.00;13.30;;;;;;;24.00;100.00;98140.34;109547;1251;71309;-72
2023/08/30 06:53:31;;;;;;;15.40;12.50;;;;;;;24.02;100.00;98139.08;109575;1250;61900;-73
2023/08/30 06:55:59;;;;;;;13.50;12.10;;;;;;;24.03;100.00;98138.52;109673;1250;58859;-70
2023/08/30 06:58:26;;;;;;;14.10;11.40;;;;;;;24.04;100.00;98139.11;109559;1250;74467;-71
2023/08/30 07:00:52;;;;;;;12.20;11.00;;;;;;;24.05;100.00;98138.65;109616;1250;66334;-72
2023/08/30 07:03:19;;;;;;;13.00;11.70;;;;;;;24.05;100.00;98146.80;109511;1250;71257;-71
2023/08/30 07:05:48;;;;;;;14.40;12.90;;;;;;;24.06;100.00;98145.98;109626;1250;59292;-70
2023/08/30 07:08:15;;;;;;;16.90;13.00;;;;;;;24.07;100.00;98145.91;109640;1250;60239;-70
2023/08/30 07:10:42;;;;;;;15.00;12.30;;;;;;;24.08;100.00;98145.27;109700;1250;74714;-70
2023/08/30 07:13:12;;;;;;;16.40;11.80;;;;;;;24.10;100.00;98147.64;109579;1250;66425;-67
2023/08/30 07:15:39;;;;;;;14.00;12.60;;;;;;;24.13;100.00;98148.58;109594;1250;72424;-67
2023/08/30 07:18:07;;;;;;;14.20;12.90;;;;;;;24.17;100.00;98143.01;109502;1250;60032;-72
2023/08/30 07:20:34;;;;;;;14.70;13.20;;;;;;;24.20;100.00;98143.02;109664;1250;58913;-68
2023/08/30 07:23:01;;;;;;;18.10;13.00;;;;;;;24.24;100.00;98143.83;109582;1250;73145;-73
2023/08/30 07:25:29;;;;;;;17.80;13.70;;;;;;;24.29;100.00;98145.23;109635;1250;65839;-71
2023/08/30 07:27:55;;;;;;;14.50;12.70;;;;;;;24.35;100.00;98143.91;109592;1250;70577;-68
2023/08/30 07:30:22;;;;;;;14.50;13.00;;;;;;;24.41;100.00;98145.58;109533;1250;58945;-70
2023/08/30 07:32:49;;;;;;;13.60;12.00;;;;;;;24.44;100.00;98145.34;109613;1250;60498;-68
2023/08/30 07:35:16;;;;;;;16.50;12.20;;;;;;;24.47;100.00;98146.25;109494;1250;74738;-73
2023/08/30 07:37:42;;;;;;;18.10;12.80;;;;;;;24.53;100.00;98151.50;109528;1250;68019;-69
2023/08/30 07:40:10;;;;;;;15.50;13.30;;;;;;;24.60;100.00;98153.04;109480;1250;71098;-71
2023/08/30 07:42:38;;;;;;;13.70;12.40;;;;;;;24.67;100.00;98155.02;109577;1250;59447;-67
2023/08/30 07:45:06;;;;;;;16.50;12.90;;;;;;;24.69;100.00;98146.13;109439;1250;59323;-71
2023/08/30 07:47:33;;;;;;;13.30;11.80;;;;;;;24.71;100.00;98153.60;109614;1250;74327;-71
2023/08/30 07:49:59;;;;;;;13.70;12.30;;;;;;;24.73;100.00;98151.08;109638;1250;68127;-69
2023/08/30 07:52:26;;;;;;;13.70;12.70;;;;;;;24.73;100.00;98147.55;109497;1250;72432;-70
2023/08/30 07:55:11;;;;;;;14.50;11.50;;;;;;;24.75;100.00;98145.66;109452;1250;62156;-70
2023/08/30 07:57:37;;;;;;;13.70;11.10;;;;;;;24.78;100.00;98144.23;109505;1250;60116;-69
2023/08/30 08:00:05;;;;;;;12.20;11.00;;;;;;;24.82;100.00;98133.75;109488;1250;76170;-70
2023/08/30 08:02:39;;;;;;;13.80;11.60;;;;;;;24.88;100.00;98134.19;109412;1250;66637;-69
2023/08/30 08:05:07;;;;;;;12.70;11.50;;;;;;;24.95;100.00;98132.66;109437;1250;72712;-69
2023/08/30 08:07:37;;;;;;;14.10;11.20;;;;;;;25.04;100.00;98133.83;109596;1250;60335;-70
2023/08/30 08:10:05;;;;;;;15.00;11.40;;;;;;;25.13;100.00;98134.30;109594;1250;58845;-73
2023/08/30 08:12:33;;;;;;;12.50;11.30;;;;;;;25.22;100.00;98141.77;109642;1250;73146;-70
2023/08/30 08:14:59;;;;;;;11.50;10.30;;;;;;;25.26;100.00;98140.39;109634;1250;68129;-69
2023/08/30 08:17:26;;;;;;;12.50;11.30;;;;;;;25.26;100.00;98141.59;109627;1250;71126;-74
2023/08/30 08:19:52;;;;;;;12.80;11.50;;;;;;;25.21;100.00;98145.55;109565;1250;58883;-71
2023/08/30 08:22:19;;;;;;;14.80;11.00;;;;;;;25.19;100.00;98144.59;109639;1250;58932;-70
2023/08/30 08:24:46;;;;;;;12.20;11.00;;;;;;;25.20;100.00;98149.43;109641;1250;75703;-68
2023/08/30 08:27:12;;;;;;;12.80;11.50;;;;;;;25.24;100.00;98146.20;109658;1250;66225;-69
2023/08/30 08:29:39;;;;;;;17.20;13.00;;;;;;;25.27;100.00;98147.02;109686;1250;71145;-73
2023/08/30 08:32:05;;;;;;;13.20;11.90;;;;;;;25.28;100.00;98152.88;109645;1250;60437;-71
2023/08/30 08:34:32;;;;;;;13.60;12.30;;;;;;;25.32;100.00;98149.44;109638;1250;60057;-71
2023/08/30 08:36:59;;;;;;;12.70;11.40;;;;;;;25.37;100.00;98154.33;109646;1250;74353;-70
2023/08/30 08:39:25;;;;;;;14.60;11.70;;;;;;;25.41;100.00;98158.55;109637;1250;58971;-71
2023/08/30 08:41:54;;;;;;;15.30;11.80;;;;;;;25.44;100.00;98162.46;109656;1250;72597;-71
2023/08/30 08:44:21;;;;;;;13.40;12.20;;;;;;;25.45;100.00;98157.45;109449;1251;60089;-71
2023/08/30 08:46:47;;;;;;;15.60;10.80;;;;;;;25.45;100.00;98160.39;109503;1250;58936;-71
2023/08/30 08:49:15;;;;;;;14.70;11.70;;;;;;;25.45;100.00;98161.70;109604;1250;74604;-71
2023/08/30 08:51:43;;;;;;;13.80;11.70;;;;;;;25.49;100.00;98163.18;109666;1250;67669;-70
2023/08/30 08:54:10;;;;;;;11.60;10.40;;;;;;;25.55;100.00;98163.34;109612;1250;73233;-67
2023/08/30 08:56:37;;;;;;;11.80;10.60;;;;;;;25.63;100.00;98166.03;109603;1250;60465;-70
2023/08/30 08:59:05;;;;;;;11.10;10.00;;;;;;;25.72;100.00;98164.53;109608;1250;60295;-68
2023/08/30 09:01:35;;;;;;;10.70;9.70;;;;;;;25.81;100.00;98156.14;109689;1250;73805;-73
2023/08/30 09:04:07;;;;;;;10.50;9.50;;;;;;;25.89;100.00;98154.89;109610;1252;67669;-70
2023/08/30 09:06:34;;;;;;;15.50;10.50;;;;;;;25.97;100.00;98156.05;109680;1250;71477;-74
2023/08/30 09:09:03;;;;;;;11.30;10.10;;;;;;;26.03;100.00;98156.52;109508;1250;58974;-70
2023/08/30 09:11:32;;;;;;;11.50;9.60;;;;;;;26.07;100.00;98152.81;109551;1250;58993;-68
2023/08/30 09:14:17;;;;;;;13.90;10.00;;;;;;;26.15;100.00;98156.21;109565;1250;74819;-70
2023/08/30 09:17:00;;;;;;;11.20;9.90;;;;;;;26.23;100.00;98154.47;109528;1251;67883;-70
2023/08/30 09:19:28;;;;;;;10.70;9.60;;;;;;;26.35;100.00;98157.11;109482;1250;72629;-73
2023/08/30 09:21:58;;;;;;;14.40;9.90;;;;;;;26.41;100.00;98147.23;109592;1250;60103;-69
2023/08/30 09:24:24;;;;;;;12.10;9.90;;;;;;;26.44;100.00;98143.80;109612;1250;58964;-70
2023/08/30 09:26:53;;;;;;;12.20;10.20;;;;;;;26.45;100.00;98142.95;109546;1250;74464;-63
2023/08/30 09:29:21;;;;;;;10.80;10.00;;;;;;;26.43;100.00;98130.36;109462;1251;67615;-60
2023/08/30 09:31:51;;;;;;;11.20;10.20;;;;;;;26.43;100.00;98133.86;109474;1250;72548;-62
2023/08/30 09:34:22;;;;;;;11.00;9.90;;;;;;;26.43;100.00;98130.58;109408;1250;60171;-62
2023/08/30 09:36:50;;;;;;;13.10;10.70;;;;;;;26.44;100.00;98121.36;109414;1251;60389;-59
2023/08/30 09:39:16;;;;;;;12.30;9.40;;;;;;;26.43;100.00;98114.88;109454;1251;74650;-60
2023/08/30 09:41:47;;;;;;;10.80;9.80;;;;;;;26.47;100.00;98108.67;109532;1251;66771;-62
2023/08/30 09:44:14;;;;;;;10.70;9.50;;;;;;;26.53;100.00;98114.54;109603;1251;73198;-63
2023/08/30 09:46:45;;;;;;;10.90;9.00;;;;;;;26.58;100.00;98115.95;109523;1250;59567;-61
2023/08/30 09:49:26;;;;;;;11.10;8.00;;;;;;;26.63;100.00;98118.53;109621;1250;60528;-63
2023/08/30 09:51:54;;;;;;;10.90;7.70;;;;;;;26.63;100.00;98116.82;109502;1250;73759;-63
2023/08/30 09:54:23;;;;;;;9.50;8.10;;;;;;;26.61;100.00;98117.20;109584;1250;67994;-68
2023/08/30 09:57:10;;;;;;;11.60;8.00;;;;;;;26.60;100.00;98115.36;109596;1250;72688;-61
2023/08/30 09:59:37;;;;;;;8.80;8.00;;;;;;;26.62;100.00;98112.04;109528;1251;60050;-62
2023/08/30 10:02:05;;;;;;;10.70;8.10;;;;;;;26.63;100.00;98113.40;109532;1250;60358;-59
2023/08/30 10:04:32;;;;;;;9.80;8.80;;;;;;;26.60;100.00;98117.54;109545;1250;73469;-63
2023/08/30 10:06:59;;;;;;;13.10;9.60;;;;;;;26.56;100.00;98112.23;109675;1250;68848;-59
2023/08/30 10:09:26;;;;;;;10.80;9.50;;;;;;;26.53;100.00;98110.73;109565;1250;71548;-59
2023/08/30 10:11:52;;;;;;;10.10;9.00;;;;;;;26.53;100.00;98105.43;109612;1250;59031;-57
2023/08/30 10:14:19;;;;;;;10.80;8.70;;;;;;;26.58;100.00;98097.36;109532;1250;58982;-59
2023/08/30 10:16:49;;;;;;;16.60;9.30;;;;;;;26.68;100.00;98097.08;109555;1251;73210;-63
2023/08/30 10:19:16;;;;;;;12.50;9.60;;;;;;;26.80;100.00;98096.98;109543;1250;67866;-60
2023/08/30 10:21:43;;;;;;;11.20;8.50;;;;;;;26.85;100.00;98087.20;109490;1250;72457;-59
2023/08/30 10:24:12;;;;;;;12.50;9.40;;;;;;;26.86;100.00;98085.11;109521;1250;59078;-58
2023/08/30 10:26:57;;;;;;;12.70;9.70;;;;;;;26.80;100.00;98073.14;109548;1251;58924;-69
2023/08/30 10:29:24;;;;;;;10.40;9.50;;;;;;;26.75;100.00;98072.91;109574;1250;74510;-59
2023/08/30 10:31:50;;;;;;;14.00;10.00;;;;;;;26.69;100.00;98066.40;109493;1250;66413;-60
2023/08/30 10:34:18;;;;;;;16.50;10.20;;;;;;;26.63;100.00;98059.06;109530;1250;70954;-61
2023/08/30 10:36:45;;;;;;;10.60;9.40;;;;;;;26.60;100.00;98057.05;109655;1250;60152;-60
2023/08/30 10:39:13;;;;;;;10.70;9.60;;;;;;;26.63;100.00;98058.36;109477;1250;59063;-61
2023/08/30 10:41:56;;;;;;;10.90;9.70;;;;;;;26.67;100.00;98052.58;109678;1250;73160;-60
2023/08/30 10:44:23;;;;;;;10.10;9.10;;;;;;;26.71;100.00;98048.45;109565;1250;67712;-59
2023/08/30 10:46:54;;;;;;;10.80;9.60;;;;;;;26.77;100.00;98046.86;109524;1251;71211;-58
2023/08/30 10:49:21;;;;;;;11.90;8.90;;;;;;;26.85;100.00;98050.33;109623;1250;59979;-62
2023/08/30 10:51:56;;;;;;;9.90;8.90;;;;;;;26.95;100.00;98046.09;109611;1251;59275;-59
2023/08/30 10:54:23;;;;;;;11.50;9.40;;;;;;;27.03;100.00;98044.48;109579;1250;74454;-62
2023/08/30 10:57:01;;;;;;;10.40;9.40;;;;;;;27.12;100.00;98038.05;109640;1250;68251;-61
2023/08/30 10:59:29;;;;;;;10.70;9.70;;;;;;;27.23;100.00;98036.39;109618;1250;72549;-62
2023/08/30 11:01:56;;;;;;;12.10;10.30;;;;;;;27.35;100.00;98039.95;109559;1251;60140;-61
2023/08/30 11:04:22;;;;;;;16.10;10.50;;;;;;;27.42;100.00;98044.76;109648;1250;59023;-61
2023/08/30 11:06:50;;;;;;;13.00;10.70;;;;;;;27.47;100.00;98043.90;109672;1250;74423;-61
2023/08/30 11:09:20;;;;;;;15.20;10.70;;;;;;;27.49;100.00;98042.17;109677;1250;68001;-61